createdAt,value
2023-03-03T00:00:02.143Z,90.8
2023-03-03T00:05:00.213Z,90.8
2023-03-03T00:10:00.102Z,90.9
2023-03-03T00:15:00.138Z,90.8
2023-03-03T00:20:00.188Z,91
2023-03-03T00:25:00.158Z,90.9
2023-03-03T00:30:00.136Z,91
2023-03-03T00:35:00.121Z,90.9
2023-03-03T00:40:00.128Z,91
2023-03-03T00:45:00.231Z,91
2023-03-03T00:50:00.118Z,91.1
2023-03-03T00:55:00.132Z,91
2023-03-03T01:00:00.261Z,91
2023-03-03T01:05:00.152Z,91.2
2023-03-03T01:10:00.137Z,90.9
2023-03-03T01:15:00.208Z,91.3
2023-03-03T01:20:00.133Z,91.4
2023-03-03T01:25:00.367Z,91.4
2023-03-03T01:30:00.155Z,91.6
2023-03-03T01:35:00.189Z,91.7
2023-03-03T01:40:00.134Z,91.6
2023-03-03T01:45:00.130Z,91.6
2023-03-03T01:50:00.183Z,91.6
2023-03-03T01:55:00.106Z,91.4
2023-03-03T02:00:00.175Z,91.6
2023-03-03T02:05:00.146Z,91.8
2023-03-03T02:10:00.139Z,91.8
2023-03-03T02:15:00.118Z,92
2023-03-03T02:20:00.324Z,92
2023-03-03T02:25:00.182Z,91.9
2023-03-03T02:30:00.148Z,92
2023-03-03T02:35:00.153Z,91.9
2023-03-03T02:40:00.144Z,92
2023-03-03T02:45:00.186Z,92
2023-03-03T02:50:00.130Z,92
2023-03-03T02:55:00.128Z,91.9
2023-03-03T03:00:00.129Z,91.8
2023-03-03T03:05:00.147Z,91.8
2023-03-03T03:10:00.137Z,92
2023-03-03T03:15:00.118Z,92
2023-03-03T03:20:00.171Z,91.9
2023-03-03T03:25:00.121Z,91.9
2023-03-03T03:30:00.154Z,91.9
2023-03-03T03:35:00.105Z,91.8
2023-03-03T03:40:00.135Z,91.8
2023-03-03T03:45:00.137Z,91.7
2023-03-03T03:50:00.100Z,91.5
2023-03-03T03:55:00.120Z,91.9
2023-03-03T04:00:00.156Z,92
2023-03-03T04:05:00.147Z,91.9
2023-03-03T04:10:00.205Z,91.9
2023-03-03T04:15:00.113Z,91.9
2023-03-03T04:20:00.142Z,92
2023-03-03T04:25:00.564Z,92
2023-03-03T04:30:00.139Z,91.9
2023-03-03T04:35:07.477Z,91.9
2023-03-03T04:40:00.129Z,92
2023-03-03T04:45:00.193Z,92.1
2023-03-03T04:50:00.183Z,92.1
2023-03-03T04:55:00.119Z,92.1
2023-03-03T05:00:00.218Z,92.1
2023-03-03T05:05:00.206Z,92.2
2023-03-03T05:10:00.112Z,92.1
2023-03-03T05:15:00.108Z,92.2
2023-03-03T05:20:00.127Z,92.3
2023-03-03T05:25:00.167Z,92.4
2023-03-03T05:30:00.124Z,92.4
2023-03-03T05:35:00.113Z,92.4
2023-03-03T05:40:00.114Z,92.4
2023-03-03T05:45:00.134Z,92.5
2023-03-03T05:50:00.103Z,92.5
2023-03-03T05:55:00.089Z,92.4
2023-03-03T06:00:00.113Z,92.5
2023-03-03T06:05:05.122Z,92.5
2023-03-03T06:10:00.106Z,92.3
2023-03-03T06:15:00.122Z,92.2
2023-03-03T06:20:00.147Z,92.1
2023-03-03T06:25:00.130Z,92.3
2023-03-03T06:30:00.214Z,92.4
2023-03-03T06:35:00.122Z,92.4
2023-03-03T06:40:00.130Z,92.4
2023-03-03T06:45:00.124Z,92.4
2023-03-03T06:50:00.121Z,92.4
2023-03-03T06:55:00.150Z,92.2
2023-03-03T07:00:00.128Z,92.2
2023-03-03T07:05:00.159Z,92.2
2023-03-03T07:10:00.101Z,92.3
2023-03-03T07:15:00.139Z,92.4
2023-03-03T07:20:00.172Z,92.3
2023-03-03T07:25:00.142Z,92.3
2023-03-03T07:30:00.149Z,92.2
2023-03-03T07:35:00.144Z,92.1
2023-03-03T07:40:00.146Z,92.1
2023-03-03T07:45:00.154Z,92
2023-03-03T07:50:00.181Z,92
2023-03-03T07:55:00.163Z,92
2023-03-03T08:00:00.217Z,92
2023-03-03T08:05:01.340Z,92
2023-03-03T08:10:00.184Z,91.9
2023-03-03T08:15:00.155Z,91.9
2023-03-03T08:20:00.151Z,91.9
2023-03-03T08:25:00.257Z,91.7
2023-03-03T08:30:00.160Z,91.1
2023-03-03T08:35:00.145Z,91
2023-03-03T08:40:00.090Z,90.4
2023-03-03T08:45:00.195Z,90.1
2023-03-03T08:50:00.159Z,90
2023-03-03T08:55:00.148Z,89.6
2023-03-03T09:00:00.142Z,89.5
2023-03-03T09:05:00.165Z,89.3
2023-03-03T09:10:00.127Z,89.2
2023-03-03T09:15:00.146Z,89
2023-03-03T09:20:00.123Z,88.9
2023-03-03T09:25:00.170Z,88.8
2023-03-03T09:30:00.141Z,88.4
2023-03-03T09:35:00.131Z,88
2023-03-03T09:40:00.171Z,88.1
2023-03-03T09:45:00.145Z,87.9
2023-03-03T09:50:02.421Z,87.5
2023-03-03T09:55:00.147Z,87.5
2023-03-03T10:00:00.215Z,87.3
2023-03-03T10:05:00.140Z,87.5
2023-03-03T10:10:00.132Z,87.3
2023-03-03T10:15:00.144Z,87
2023-03-03T10:20:00.120Z,87
2023-03-03T10:25:00.173Z,87
2023-03-03T10:30:00.156Z,86.8
2023-03-03T10:35:00.120Z,86.5
2023-03-03T10:40:00.160Z,85.9
2023-03-03T10:45:00.139Z,85.9
2023-03-03T10:50:00.122Z,85.2
2023-03-03T10:55:00.133Z,85.3
2023-03-03T11:00:00.169Z,84.9
2023-03-03T11:05:00.337Z,84.7
2023-03-03T11:10:00.126Z,84.7
2023-03-03T11:15:00.457Z,85.3
2023-03-03T11:20:00.114Z,85.6
2023-03-03T11:25:00.149Z,85.6
2023-03-03T11:30:00.185Z,85.6
2023-03-03T11:35:00.125Z,85.5
2023-03-03T11:40:00.156Z,85.5
2023-03-03T11:45:00.164Z,85.5
2023-03-03T11:50:00.128Z,85.6
2023-03-03T11:55:00.185Z,85.8
2023-03-03T12:00:00.136Z,86
2023-03-03T12:05:00.177Z,85.8
2023-03-03T12:10:00.151Z,85.7
2023-03-03T12:15:00.121Z,85.5
2023-03-03T12:20:00.136Z,85.3
2023-03-03T12:25:00.164Z,85.2
2023-03-03T12:30:00.108Z,85.2
2023-03-03T12:35:00.110Z,85.2
2023-03-03T12:40:00.232Z,85.1
2023-03-03T12:45:00.117Z,85.1
2023-03-03T12:50:06.691Z,84.9
2023-03-03T12:55:00.108Z,84.7
2023-03-03T13:00:00.146Z,84.1
2023-03-03T13:05:00.122Z,83.7
2023-03-03T13:10:00.130Z,83.3
2023-03-03T13:15:00.153Z,83.3
2023-03-03T13:20:00.203Z,83.3
2023-03-03T13:25:00.136Z,83.4
2023-03-03T13:30:00.190Z,83.4
2023-03-03T13:35:00.102Z,83.4
2023-03-03T13:40:00.135Z,83.4
2023-03-03T13:45:00.156Z,83.4
2023-03-03T13:50:00.128Z,83.6
2023-03-03T13:55:00.107Z,83.8
2023-03-03T14:00:00.118Z,84.1
2023-03-03T14:05:00.132Z,84.3
2023-03-03T14:10:00.148Z,84.6
2023-03-03T14:15:00.126Z,84.5
2023-03-03T14:20:02.318Z,85.3
2023-03-03T14:25:00.162Z,85.5
2023-03-03T14:30:00.170Z,85.3
2023-03-03T14:35:00.114Z,85
2023-03-03T14:40:00.135Z,85.1
2023-03-03T14:45:00.154Z,85.2
2023-03-03T14:50:00.375Z,85.1
2023-03-03T14:55:00.131Z,84.9
2023-03-03T15:00:00.169Z,85
2023-03-03T15:05:00.207Z,85.1
2023-03-03T15:10:00.102Z,85.3
2023-03-03T15:15:00.138Z,85.3
2023-03-03T15:20:00.124Z,85.6
2023-03-03T15:25:00.140Z,85.5
2023-03-03T15:30:00.142Z,85.4
2023-03-03T15:35:00.366Z,85.3
2023-03-03T15:40:00.136Z,85.3
2023-03-03T15:45:00.156Z,85.5
2023-03-03T15:50:00.122Z,85.6
2023-03-03T15:55:00.109Z,85.6
2023-03-03T16:00:00.175Z,85.6
2023-03-03T16:05:00.144Z,85.6
2023-03-03T16:10:00.129Z,85.6
2023-03-03T16:15:00.170Z,85.6
2023-03-03T16:20:00.116Z,85.7
2023-03-03T16:25:00.132Z,85.8
2023-03-03T16:30:00.115Z,85.8
2023-03-03T16:35:00.132Z,86
2023-03-03T16:40:00.131Z,86.1
2023-03-03T16:45:00.157Z,86.1
2023-03-03T16:50:00.204Z,86.1
2023-03-03T16:55:00.140Z,86.3
2023-03-03T17:00:00.196Z,86.5
2023-03-03T17:05:00.186Z,86.5
2023-03-03T17:10:00.128Z,86.5
2023-03-03T17:15:00.127Z,86.6
2023-03-03T17:20:00.140Z,86.7
2023-03-03T17:25:00.121Z,86.8
2023-03-03T17:30:00.137Z,86.9
2023-03-03T17:35:00.118Z,86.9
2023-03-03T17:40:00.132Z,87
2023-03-03T17:45:00.143Z,87
2023-03-03T17:50:00.215Z,87
2023-03-03T17:55:00.127Z,87
2023-03-03T18:00:00.155Z,87
2023-03-03T18:05:00.158Z,87
2023-03-03T18:10:00.128Z,86.9
2023-03-03T18:15:00.119Z,87
2023-03-03T18:20:00.231Z,86.9
2023-03-03T18:25:00.151Z,86.9
2023-03-03T18:30:00.286Z,86.9
2023-03-03T18:35:00.158Z,86.9
2023-03-03T18:40:00.141Z,87
2023-03-03T18:45:00.147Z,87
2023-03-03T18:50:00.139Z,86.9
2023-03-03T18:55:00.184Z,86.9
2023-03-03T19:00:00.292Z,87
2023-03-03T19:05:00.276Z,86.8
2023-03-03T19:10:00.209Z,86.8
2023-03-03T19:15:00.140Z,86.1
2023-03-03T19:20:00.139Z,86.9
2023-03-03T19:25:00.209Z,87
2023-03-03T19:30:00.165Z,87
2023-03-03T19:35:00.129Z,87.1
2023-03-03T19:40:00.311Z,87
2023-03-03T19:45:00.135Z,87.1
2023-03-03T19:50:00.120Z,87.1
2023-03-03T19:55:00.156Z,86.9
2023-03-03T20:00:00.154Z,86.9
2023-03-03T20:05:00.272Z,86.6
2023-03-03T20:10:00.139Z,87
2023-03-03T20:15:00.095Z,87
2023-03-03T20:20:00.227Z,87
2023-03-03T20:25:00.145Z,87.1
2023-03-03T20:30:00.146Z,87.2
2023-03-03T20:35:00.123Z,87.3
2023-03-03T20:40:00.183Z,87.3
2023-03-03T20:45:00.120Z,87.3
2023-03-03T20:50:00.161Z,87.3
2023-03-03T20:55:00.146Z,87.3
2023-03-03T21:00:00.177Z,87.4
2023-03-03T21:05:00.170Z,87.3
2023-03-03T21:10:00.125Z,87.4
2023-03-03T21:15:00.125Z,87.3
2023-03-03T21:20:00.123Z,87.3
2023-03-03T21:25:00.168Z,87.1
2023-03-03T21:30:00.183Z,87
2023-03-03T21:35:00.132Z,87
2023-03-03T21:40:00.122Z,86.9
2023-03-03T21:45:00.137Z,86.9
2023-03-03T21:50:00.147Z,86.9
2023-03-03T21:55:00.166Z,87
2023-03-03T22:00:00.142Z,87.1
2023-03-03T22:05:00.169Z,87.2
2023-03-03T22:10:00.157Z,87.4
2023-03-03T22:15:00.182Z,87.7
2023-03-03T22:20:00.151Z,87.9
2023-03-03T22:25:00.150Z,88.1
2023-03-03T22:30:00.173Z,88.3
2023-03-03T22:35:00.124Z,88.5
2023-03-03T22:40:00.134Z,88.6
2023-03-03T22:45:00.154Z,88.8
2023-03-03T22:50:00.109Z,88.9
2023-03-03T22:55:00.145Z,89.1
2023-03-03T23:00:00.183Z,89.4
2023-03-03T23:05:00.204Z,89.6
2023-03-03T23:10:00.112Z,89.5
2023-03-03T23:15:00.128Z,89.6
2023-03-03T23:20:00.119Z,89.4
2023-03-03T23:25:00.133Z,89.3
2023-03-03T23:30:00.118Z,89.2
2023-03-03T23:35:00.122Z,89
2023-03-03T23:40:00.120Z,88.9
2023-03-03T23:45:00.153Z,88.9
2023-03-03T23:50:00.141Z,88.9
2023-03-03T23:55:00.125Z,88.9
